Time;durP1;ratioP1;P1;durP2;ratioP2;P2;SDS_P1;SDS_P2;PMS_P1;PMS_P2;Temp;Humidity;BMP_temperature;BMP_pressure;BME280_temperature;BME280_humidity;BME280_pressure;Samples;Min_cycle;Max_cycle;Signal;HPM_P1;HPM_P2
2022/12/20 00:01:19;;;;;;;;;;;;;;;-0.43;100.00;98751.53;5124597;28;19934;-59
2022/12/20 00:03:48;;;;;;;;;;;;;;;-0.39;100.00;98755.47;5123073;28;19996;-59
2022/12/20 00:06:15;;;;;;;;;;;;;;;-0.45;100.00;98758.78;5121227;28;19924;-60
2022/12/20 00:08:41;;;;;;;;;;;;;;;-0.44;100.00;98773.56;5122089;28;20056;-60
2022/12/20 00:11:08;;;;;;;;;;;;;;;-0.43;100.00;98767.28;5124550;28;19979;-60
2022/12/20 00:13:34;;;;;;;;;;;;;;;-0.42;100.00;98768.94;5124371;28;19945;-60
2022/12/20 00:16:05;;;;;;;;;;;;;;;-0.42;100.00;98768.13;5112584;28;19925;-59
2022/12/20 00:18:32;;;;;;;;;;;;;;;-0.44;100.00;98768.31;5112303;28;19928;-59
2022/12/20 00:20:59;;;;;;;;;;;;;;;-0.41;100.00;98769.75;5112123;28;19935;-60
2022/12/20 00:23:26;;;;;;;;;;;;;;;-0.44;100.00;98783.22;5112349;28;19924;-60
2022/12/20 00:25:52;;;;;;;;;;;;;;;-0.46;100.00;98783.38;5120733;28;19924;-60
2022/12/20 00:28:19;;;;;;;;;;;;;;;-0.45;100.00;98782.41;5120663;28;19928;-60
2022/12/20 00:30:45;;;;;;;;;;;;;;;-0.38;100.00;98778.09;5121744;28;19924;-60
2022/12/20 00:33:11;;;;;;;;;;;;;;;-0.41;100.00;98777.63;5124065;28;19935;-60
2022/12/20 00:35:41;;;;;;;;;;;;;;;-0.28;100.00;98781.31;5123731;28;19934;-60
2022/12/20 00:38:09;;;;;;;;;;;;;;;-0.33;100.00;98781.03;5120596;28;20007;-61
2022/12/20 00:40:35;;;;;;;;;;;;;;;-0.36;100.00;98768.25;5120527;28;19951;-59
2022/12/20 00:43:02;;;;;;;;;;;;;;;-0.36;100.00;98776.13;5120268;28;19987;-58
2022/12/20 00:45:28;;;;;;;;;;;;;;;-0.32;100.00;98777.41;5118947;28;19970;-60
2022/12/20 00:47:54;;;;;;;;;;;;;;;-0.36;100.00;98773.50;5123024;28;19987;-60
2022/12/20 00:50:21;;;;;;;;;;;;;;;-0.38;100.00;98778.09;5123749;28;20614;-60
2022/12/20 00:52:47;;;;;;;;;;;;;;;-0.45;100.00;98766.66;5117133;28;19924;-60
2022/12/20 00:55:15;;;;;;;;;;;;;;;-0.48;100.00;98764.38;5116728;28;19987;-59
2022/12/20 00:57:41;;;;;;;;;;;;;;;-0.51;100.00;98762.09;5122651;28;19923;-59
2022/12/20 01:00:08;;;;;;;;;;;;;;;-0.40;100.00;98764.31;5120068;28;19995;-59
2022/12/20 01:02:35;;;;;;;;;;;;;;;-0.43;100.00;98767.28;5119695;28;19959;-59
2022/12/20 01:05:01;;;;;;;;;;;;;;;-0.38;100.00;98756.28;5119893;28;19960;-60
2022/12/20 01:07:27;;;;;;;;;;;;;;;-0.40;100.00;98764.31;5119924;28;20011;-59
2022/12/20 01:09:54;;;;;;;;;;;;;;;-0.42;100.00;98771.56;5122432;28;20015;-60
2022/12/20 01:12:21;;;;;;;;;;;;;;;-0.41;100.00;98778.44;5123554;28;19953;-59
2022/12/20 01:14:47;;;;;;;;;;;;;;;-0.48;100.00;98767.00;5121636;28;19979;-60
2022/12/20 01:17:14;;;;;;;;;;;;;;;-0.45;100.00;98769.28;5120030;28;20011;-60
2022/12/20 01:19:40;;;;;;;;;;;;;;;-0.42;100.00;98768.13;5120298;28;19934;-59
2022/12/20 01:22:06;;;;;;;;;;;;;;;-0.34;100.00;98771.50;5122645;28;20000;-59
2022/12/20 01:24:33;;;;;;;;;;;;;;;-0.35;100.00;98772.50;5111131;28;19974;-60
2022/12/20 01:26:59;;;;;;;;;;;;;;;-0.34;100.00;98768.88;5122926;28;19924;-60
2022/12/20 01:29:27;;;;;;;;;;;;;;;-0.29;100.00;98766.56;5122847;28;20038;-61
2022/12/20 01:31:53;;;;;;;;;;;;;;;-0.33;100.00;98767.91;5120368;28;19995;-60
2022/12/20 01:34:20;;;;;;;;;;;;;;;-0.36;100.00;98755.13;5119426;28;20054;-60
2022/12/20 01:36:46;;;;;;;;;;;;;;;-0.41;100.00;98760.09;5120809;28;19992;-60
2022/12/20 01:39:13;;;;;;;;;;;;;;;-0.39;100.00;98759.91;5122823;28;19998;-60
2022/12/20 01:41:40;;;;;;;;;;;;;;;-0.48;100.00;98756.50;5121995;28;19987;-59
2022/12/20 01:44:26;;;;;;;;;;;;;;;-0.45;100.00;98756.16;5119064;28;19924;-59
2022/12/20 01:46:54;;;;;;;;;;;;;;;-0.44;100.00;98747.31;5121211;28;19966;-60
2022/12/20 01:49:24;;;;;;;;;;;;;;;-0.48;100.00;98751.25;5122668;28;19959;-59
2022/12/20 01:51:53;;;;;;;;;;;;;;;-0.41;100.00;98751.38;5120253;28;19920;-59
2022/12/20 01:54:23;;;;;;;;;;;;;;;-0.50;100.00;98749.81;5110380;28;19983;-60
2022/12/20 01:56:53;;;;;;;;;;;;;;;-0.50;100.00;98753.25;5120364;28;19924;-59
2022/12/20 01:59:19;;;;;;;;;;;;;;;-0.49;100.00;98728.63;5122253;28;19951;-60
2022/12/20 02:01:46;;;;;;;;;;;;;;;-0.45;100.00;98732.53;5120579;28;19931;-60
2022/12/20 02:04:13;;;;;;;;;;;;;;;-0.32;100.00;98735.44;5118829;28;20114;-60
2022/12/20 02:06:40;;;;;;;;;;;;;;;-0.33;100.00;98731.16;5119133;28;19928;-60
2022/12/20 02:09:07;;;;;;;;;;;;;;;-0.36;100.00;98742.00;5122238;28;19959;-59
2022/12/20 02:11:51;;;;;;;;;;;;;;;-0.50;100.00;98731.44;5122091;28;19931;-59
2022/12/20 02:14:26;;;;;;;;;;;;;;;-0.51;100.00;98741.09;5111056;28;19979;-59
2022/12/20 02:16:57;;;;;;;;;;;;;;;-0.50;100.00;98734.88;5120798;28;19924;-60
2022/12/20 02:19:41;;;;;;;;;;;;;;;-0.47;100.00;98726.66;5103639;28;20267;-60
2022/12/20 02:22:16;;;;;;;;;;;;;;;-0.45;100.00;98729.09;5110130;28;19991;-61
2022/12/20 02:25:03;;;;;;;;;;;;;;;-0.41;100.00;98735.66;5110649;28;19928;-60
2022/12/20 02:27:41;;;;;;;;;;;;;;;-0.44;100.00;98725.50;5118101;28;19943;-59
2022/12/20 02:30:14;;;;;;;;;;;;;;;-0.42;100.00;98719.06;5117919;28;19924;-60
2022/12/20 02:32:42;;;;;;;;;;;;;;;-0.51;100.00;98716.69;5118817;28;19928;-60
2022/12/20 02:35:12;;;;;;;;;;;;;;;-0.51;100.00;98709.63;5121707;28;20015;-59
2022/12/20 02:37:47;;;;;;;;;;;;;;;-0.34;100.00;98712.97;5120154;28;21613;-60
2022/12/20 02:40:14;;;;;;;;;;;;;;;-0.30;100.00;98715.06;5099856;28;19935;-59
2022/12/20 02:42:41;;;;;;;;;;;;;;;-0.26;100.00;98718.16;5118562;28;19946;-59
2022/12/20 02:45:19;;;;;;;;;;;;;;;-0.35;100.00;98709.53;5121471;28;19934;-59
2022/12/20 02:47:52;;;;;;;;;;;;;;;-0.47;100.00;98720.59;5119964;28;19962;-61
2022/12/20 02:50:21;;;;;;;;;;;;;;;-0.46;100.00;98717.78;5117825;28;19995;-59
2022/12/20 02:52:49;;;;;;;;;;;;;;;-0.36;100.00;98705.25;5122485;28;19935;-58
2022/12/20 02:55:15;;;;;;;;;;;;;;;-0.45;100.00;98697.63;5121523;28;19973;-60
2022/12/20 02:57:45;;;;;;;;;;;;;;;-0.55;100.00;98693.41;5120418;28;20327;-60
2022/12/20 03:00:13;;;;;;;;;;;;;;;-0.66;100.00;98696.44;5117862;28;19924;-60
2022/12/20 03:05:26;;;;;;;;;;;;;;;-0.58;100.00;98708.66;5121189;28;19923;-60
2022/12/20 03:07:53;;;;;;;;;;;;;;;-0.54;100.00;98709.97;5118623;28;19927;-60
2022/12/20 03:10:20;;;;;;;;;;;;;;;-0.30;100.00;98701.94;5117147;28;19980;-60
2022/12/20 03:12:46;;;;;;;;;;;;;;;-0.26;100.00;98690.09;5118950;28;20575;-60
2022/12/20 03:15:12;;;;;;;;;;;;;;;-0.43;100.00;98693.03;5121373;28;19923;-59
2022/12/20 03:17:39;;;;;;;;;;;;;;;-0.43;100.00;98696.44;5120745;28;19987;-59
2022/12/20 03:20:06;;;;;;;;;;;;;;;-0.56;100.00;98691.75;5117783;28;20578;-58
2022/12/20 03:22:34;;;;;;;;;;;;;;;-0.57;100.00;98676.22;5117362;28;19930;-59
2022/12/20 03:25:00;;;;;;;;;;;;;;;-0.61;100.00;98673.13;5112786;28;19947;-60
2022/12/20 03:27:27;;;;;;;;;;;;;;;-0.58;100.00;98677.19;5121082;28;19983;-59
2022/12/20 03:29:53;;;;;;;;;;;;;;;-0.65;100.00;98671.03;5118641;28;19927;-59
2022/12/20 03:32:20;;;;;;;;;;;;;;;-0.63;100.00;98674.28;5117531;28;19959;-60
2022/12/20 03:34:46;;;;;;;;;;;;;;;-0.67;100.00;98673.81;5118991;28;19984;-60
2022/12/20 03:37:13;;;;;;;;;;;;;;;-0.72;100.00;98683.19;5121099;28;19952;-59
2022/12/20 03:39:40;;;;;;;;;;;;;;;-0.71;100.00;98676.94;5120301;28;19923;-61
2022/12/20 03:42:07;;;;;;;;;;;;;;;-0.69;100.00;98667.94;5117356;28;19928;-59
2022/12/20 03:44:33;;;;;;;;;;;;;;;-0.66;100.00;98674.63;5117166;28;19991;-59
2022/12/20 03:47:00;;;;;;;;;;;;;;;-0.65;100.00;98677.06;5120572;28;19923;-59
2022/12/20 03:49:26;;;;;;;;;;;;;;;-0.58;100.00;98680.63;5120771;28;20532;-60
2022/12/20 03:51:53;;;;;;;;;;;;;;;-0.56;100.00;98676.03;5118569;28;19931;-59
2022/12/20 03:54:19;;;;;;;;;;;;;;;-0.57;100.00;98684.09;5108875;28;19935;-59
2022/12/20 03:56:47;;;;;;;;;;;;;;;-0.51;100.00;98678.13;5118531;28;19930;-59
2022/12/20 03:59:13;;;;;;;;;;;;;;;-0.45;100.00;98693.19;5120970;28;19955;-60
2022/12/20 04:01:40;;;;;;;;;;;;;;;-0.56;100.00;98686.50;5120367;28;19995;-59
2022/12/20 04:04:14;;;;;;;;;;;;;;;-0.56;100.00;98683.09;5117721;28;19920;-60
2022/12/20 04:06:40;;;;;;;;;;;;;;;-0.51;100.00;98677.31;5118001;28;19943;-59
2022/12/20 04:09:06;;;;;;;;;;;;;;;-0.46;100.00;98675.78;5120800;28;19999;-60
2022/12/20 04:11:33;;;;;;;;;;;;;;;-0.41;100.00;98678.75;5120604;28;20018;-59
2022/12/20 04:14:00;;;;;;;;;;;;;;;-0.38;100.00;98693.31;5117523;28;19971;-60
2022/12/20 04:16:28;;;;;;;;;;;;;;;-0.39;100.00;98684.63;5117159;28;19935;-60
2022/12/20 04:18:54;;;;;;;;;;;;;;;-0.38;100.00;98688.88;5119708;28;19989;-59
2022/12/20 04:21:22;;;;;;;;;;;;;;;-0.43;100.00;98678.06;5123347;28;19923;-60
2022/12/20 04:23:48;;;;;;;;;;;;;;;-0.41;100.00;98689.22;5113645;28;19928;-59
2022/12/20 04:26:14;;;;;;;;;;;;;;;-0.40;100.00;98682.19;5120576;28;19924;-59
2022/12/20 04:28:41;;;;;;;;;;;;;;;-0.33;100.00;98681.28;5121016;28;20566;-59
2022/12/20 04:31:09;;;;;;;;;;;;;;;-0.48;100.00;98669.91;5123918;28;20014;-60
2022/12/20 04:33:36;;;;;;;;;;;;;;;-0.49;100.00;98670.91;5123921;28;19920;-60
2022/12/20 04:36:02;;;;;;;;;;;;;;;-0.50;100.00;98664.03;5112007;28;19931;-60
2022/12/20 04:38:28;;;;;;;;;;;;;;;-0.56;100.00;98659.50;5111912;28;19924;-59
2022/12/20 04:40:55;;;;;;;;;;;;;;;-0.59;100.00;98649.34;5111919;28;19959;-59
2022/12/20 04:43:22;;;;;;;;;;;;;;;-0.57;100.00;98642.94;5111912;28;20046;-59
2022/12/20 04:45:49;;;;;;;;;;;;;;;-0.61;100.00;98640.81;5111741;28;19979;-60
2022/12/20 04:48:17;;;;;;;;;;;;;;;-0.67;100.00;98644.13;5111863;28;20031;-58
2022/12/20 04:50:47;;;;;;;;;;;;;;;-0.47;100.00;98641.88;5111763;28;19946;-59
2022/12/20 04:55:57;;;;;;;;;;;;;;;-0.44;100.00;98671.22;5120225;28;19950;-60
2022/12/20 04:58:23;;;;;;;;;;;;;;;-0.36;100.00;98676.38;5120169;28;19987;-59
2022/12/20 05:00:51;;;;;;;;;;;;;;;-0.28;100.00;98678.16;5121628;28;19996;-60
2022/12/20 05:03:18;;;;;;;;;;;;;;;-0.44;100.00;98670.38;5123420;28;20366;-59
2022/12/20 05:05:45;;;;;;;;;;;;;;;-0.47;100.00;98676.81;5122228;28;19996;-60
2022/12/20 05:08:11;;;;;;;;;;;;;;;-0.46;100.00;98659.25;5119872;28;19959;-60
2022/12/20 05:10:37;;;;;;;;;;;;;;;-0.59;100.00;98650.13;5120001;28;19928;-59
2022/12/20 05:13:04;;;;;;;;;;;;;;;-0.60;100.00;98639.84;5123493;28;19924;-59
2022/12/20 05:15:30;;;;;;;;;;;;;;;-0.72;100.00;98628.94;5123054;28;20519;-59
2022/12/20 05:17:58;;;;;;;;;;;;;;;-0.77;100.00;98627.81;5120351;28;19932;-59
2022/12/20 05:20:26;;;;;;;;;;;;;;;-0.71;100.00;98624.47;5119730;28;19966;-60
2022/12/20 05:28:30;;;;;;;;;;;;;;;-0.51;100.00;98630.09;5118083;28;19924;-60
2022/12/20 05:30:56;;;;;;;;;;;;;;;-0.58;100.00;98619.47;5121871;28;19991;-59
2022/12/20 05:33:22;;;;;;;;;;;;;;;-0.62;100.00;98624.25;5122199;28;19934;-59
2022/12/20 05:35:50;;;;;;;;;;;;;;;-0.52;100.00;98628.44;5120935;28;19952;-59
2022/12/20 05:38:16;;;;;;;;;;;;;;;-0.51;100.00;98619.59;5100986;28;19967;-60
2022/12/20 05:40:43;;;;;;;;;;;;;;;-0.51;100.00;98609.09;5120039;28;19951;-59
2022/12/20 05:43:09;;;;;;;;;;;;;;;-0.51;100.00;98622.22;5122462;28;19930;-60
2022/12/20 05:45:36;;;;;;;;;;;;;;;-0.50;100.00;98627.31;5122146;28;19944;-59
2022/12/20 05:48:02;;;;;;;;;;;;;;;-0.51;100.00;98625.66;5110503;28;19928;-59
2022/12/20 05:50:28;;;;;;;;;;;;;;;-0.50;100.00;98631.72;5110101;28;19934;-60
2022/12/20 05:52:56;;;;;;;;;;;;;;;-0.46;100.00;98636.44;5110112;28;19920;-60
2022/12/20 05:55:22;;;;;;;;;;;;;;;-0.46;100.00;98643.53;5116809;28;19927;-60
2022/12/20 05:57:49;;;;;;;;;;;;;;;-0.43;100.00;98636.09;5120384;28;19931;-59
2022/12/20 06:00:16;;;;;;;;;;;;;;;-0.39;100.00;98645.25;5119072;28;19931;-59
2022/12/20 06:02:42;;;;;;;;;;;;;;;-0.46;100.00;98630.41;5119288;28;19979;-59
2022/12/20 06:05:08;;;;;;;;;;;;;;;-0.46;100.00;98625.94;5122179;28;19934;-59
2022/12/20 06:07:35;;;;;;;;;;;;;;;-0.57;100.00;98615.88;5122161;28;19951;-59
2022/12/20 06:10:03;;;;;;;;;;;;;;;-0.57;100.00;98608.00;5100515;28;19942;-59
2022/12/20 06:12:29;;;;;;;;;;;;;;;-0.60;100.00;98613.59;5118510;28;20003;-59
2022/12/20 06:14:56;;;;;;;;;;;;;;;-0.61;100.00;98604.09;5121198;28;19924;-59
2022/12/20 06:17:22;;;;;;;;;;;;;;;-0.68;100.00;98600.56;5122125;28;19972;-60
2022/12/20 06:19:48;;;;;;;;;;;;;;;-0.65;100.00;98615.94;5102196;28;19943;-59
2022/12/20 06:22:14;;;;;;;;;;;;;;;-0.51;100.00;98622.22;5118581;28;20032;-60
2022/12/20 06:24:41;;;;;;;;;;;;;;;-0.52;100.00;98629.28;5110502;28;19995;-62
2022/12/20 06:27:08;;;;;;;;;;;;;;;-0.47;100.00;98631.38;5122196;28;19928;-60
2022/12/20 06:29:36;;;;;;;;;;;;;;;-0.55;100.00;98627.00;5122110;28;20571;-58
2022/12/20 06:32:04;;;;;;;;;;;;;;;-0.56;100.00;98625.38;5118887;28;19924;-59
2022/12/20 06:34:30;;;;;;;;;;;;;;;-0.59;100.00;98618.66;5118403;28;19924;-59
2022/12/20 06:36:56;;;;;;;;;;;;;;;-0.65;100.00;98621.19;5121349;28;19928;-59
2022/12/20 06:39:23;;;;;;;;;;;;;;;-0.64;100.00;98620.19;5121678;28;19992;-60
2022/12/20 06:41:49;;;;;;;;;;;;;;;-0.60;100.00;98611.78;5119589;28;19955;-60
2022/12/20 06:44:17;;;;;;;;;;;;;;;-0.62;100.00;98624.25;5117601;28;19993;-59
2022/12/20 06:46:43;;;;;;;;;;;;;;;-0.56;100.00;98628.00;5118527;28;19995;-60
2022/12/20 06:49:10;;;;;;;;;;;;;;;-0.57;100.00;98615.88;5121081;28;19951;-60
2022/12/20 06:51:36;;;;;;;;;;;;;;;-0.47;100.00;98615.63;5120920;28;19964;-59
2022/12/20 06:54:03;;;;;;;;;;;;;;;-0.35;100.00;98630.81;5109043;28;19924;-60
2022/12/20 06:56:29;;;;;;;;;;;;;;;-0.28;100.00;98625.66;5117258;28;19924;-60
2022/12/20 06:58:55;;;;;;;;;;;;;;;-0.33;100.00;98628.81;5120141;28;19994;-59
2022/12/20 07:01:23;;;;;;;;;;;;;;;-0.47;100.00;98636.63;5120917;28;19939;-60
2022/12/20 07:03:49;;;;;;;;;;;;;;;-0.45;100.00;98629.38;5119008;28;19924;-60
2022/12/20 07:06:16;;;;;;;;;;;;;;;-0.47;100.00;98605.97;5117566;28;19984;-59
2022/12/20 07:08:42;;;;;;;;;;;;;;;-0.47;100.00;98605.97;5118089;28;19924;-60
2022/12/20 07:11:08;;;;;;;;;;;;;;;-0.45;100.00;98606.59;5120774;28;19934;-60
2022/12/20 07:13:34;;;;;;;;;;;;;;;-0.42;100.00;98600.19;5120831;28;19928;-59
2022/12/20 07:16:02;;;;;;;;;;;;;;;-0.50;100.00;98600.25;5117208;28;19987;-60
2022/12/20 07:18:30;;;;;;;;;;;;;;;-0.41;100.00;98593.94;5117042;28;20055;-58
2022/12/20 07:20:59;;;;;;;;;;;;;;;-0.31;100.00;98597.94;5120047;28;20017;-60
2022/12/20 07:23:25;;;;;;;;;;;;;;;-0.37;100.00;98589.97;5113527;28;20616;-59
2022/12/20 07:25:55;;;;;;;;;;;;;;;-0.37;100.00;98588.16;5117042;28;19955;-60
2022/12/20 07:28:21;;;;;;;;;;;;;;;-0.49;100.00;98583.50;5117241;28;20084;-60
2022/12/20 07:30:48;;;;;;;;;;;;;;;-0.55;100.00;98561.41;5118418;28;19928;-60
2022/12/20 07:33:14;;;;;;;;;;;;;;;-0.61;100.00;98549.81;5120583;28;19927;-60
2022/12/20 07:35:42;;;;;;;;;;;;;;;-0.55;100.00;98562.22;5120029;28;19963;-60
2022/12/20 07:38:09;;;;;;;;;;;;;;;-0.43;100.00;98582.81;5116931;28;20403;-60
2022/12/20 07:40:35;;;;;;;;;;;;;;;-0.37;100.00;98588.16;5116609;28;20312;-60
2022/12/20 07:43:01;;;;;;;;;;;;;;;-0.33;100.00;98571.06;5120509;28;19942;-60
2022/12/20 07:45:28;;;;;;;;;;;;;;;-0.31;100.00;98597.94;5120244;28;19970;-59
2022/12/20 07:47:56;;;;;;;;;;;;;;;-0.17;100.00;98618.19;5117820;28;19924;-59
2022/12/20 07:50:22;;;;;;;;;;;;;;;-0.32;100.00;98585.84;5116845;28;19930;-59
2022/12/20 07:52:50;;;;;;;;;;;;;;;-0.21;100.00;98630.00;5116785;28;20040;-60
2022/12/20 07:55:18;;;;;;;;;;;;;;;0.23;100.00;98640.59;5115608;28;20018;-58
2022/12/20 07:57:48;;;;;;;;;;;;;;;0.13;100.00;98633.97;5123281;28;19919;-59
2022/12/20 08:00:17;;;;;;;;;;;;;;;-0.11;100.00;98591.22;5120956;28;19924;-59
2022/12/20 08:02:47;;;;;;;;;;;;;;;0.10;100.00;98623.81;5121642;28;20361;-60
2022/12/20 08:05:14;;;;;;;;;;;;;;;0.12;100.00;98619.22;5124611;28;20231;-59
2022/12/20 08:07:41;;;;;;;;;;;;;;;-0.01;100.00;98618.03;5123886;28;20031;-59
2022/12/20 08:10:11;;;;;;;;;;;;;;;0.03;100.00;98617.69;5120927;28;19980;-60
2022/12/20 08:12:38;;;;;;;;;;;;;;;0.11;100.00;98625.47;5120750;28;19983;-60
2022/12/20 08:15:04;;;;;;;;;;;;;;;0.18;100.00;98629.00;5124006;28;20428;-60
2022/12/20 08:17:31;;;;;;;;;;;;;;;0.02;100.00;98616.84;5124207;28;19924;-60
2022/12/20 08:19:59;;;;;;;;;;;;;;;-0.08;100.00;98600.53;5121155;28;19934;-60
2022/12/20 08:22:25;;;;;;;;;;;;;;;-0.09;100.00;98602.34;5120451;28;20035;-59
2022/12/20 08:24:52;;;;;;;;;;;;;;;0.00;100.00;98603.09;5114115;28;19924;-59
2022/12/20 08:27:19;;;;;;;;;;;;;;;0.10;100.00;98608.06;5124277;28;19928;-59
2022/12/20 08:29:46;;;;;;;;;;;;;;;0.04;100.00;98625.34;5122314;28;19995;-60
2022/12/20 08:32:13;;;;;;;;;;;;;;;-0.05;100.00;98613.31;5120587;28;19924;-59
2022/12/20 08:34:39;;;;;;;;;;;;;;;-0.01;100.00;98597.03;5120757;28;19956;-59
2022/12/20 08:37:05;;;;;;;;;;;;;;;0.00;100.00;98589.97;5123873;28;19987;-59
2022/12/20 08:39:32;;;;;;;;;;;;;;;0.03;100.00;98587.00;5123772;28;20042;-60
2022/12/20 08:41:58;;;;;;;;;;;;;;;0.07;100.00;98592.66;5120502;28;20003;-59
2022/12/20 08:44:26;;;;;;;;;;;;;;;0.04;100.00;98587.78;5119777;28;20259;-60
2022/12/20 08:46:53;;;;;;;;;;;;;;;0.10;100.00;98593.13;5122114;28;20356;-60
2022/12/20 08:49:19;;;;;;;;;;;;;;;0.08;100.00;98587.25;5123580;28;19923;-60
2022/12/20 08:51:45;;;;;;;;;;;;;;;0.08;100.00;98589.88;5121994;28;20008;-60
2022/12/20 08:54:12;;;;;;;;;;;;;;;-0.03;100.00;98585.06;5111450;28;19959;-59
2022/12/20 08:56:38;;;;;;;;;;;;;;;-0.02;100.00;98579.63;5120302;28;19928;-59
2022/12/20 08:59:05;;;;;;;;;;;;;;;0.04;100.00;98566.78;5124100;28;19937;-59
2022/12/20 09:01:33;;;;;;;;;;;;;;;-0.04;100.00;98560.63;5123889;28;19955;-59
2022/12/20 09:03:59;;;;;;;;;;;;;;;-0.01;100.00;98565.53;5120742;28;19924;-60
2022/12/20 09:06:26;;;;;;;;;;;;;;;-0.04;100.00;98568.50;5119152;28;19980;-59
2022/12/20 09:08:52;;;;;;;;;;;;;;;0.01;100.00;98552.19;5122521;28;19996;-60
2022/12/20 09:11:19;;;;;;;;;;;;;;;0.03;100.00;98562.53;5124167;28;19966;-60
2022/12/20 09:13:46;;;;;;;;;;;;;;;0.06;100.00;98564.81;5122537;28;19924;-59
2022/12/20 09:16:14;;;;;;;;;;;;;;;0.11;100.00;98565.88;5119769;28;20396;-61
2022/12/20 09:18:42;;;;;;;;;;;;;;;0.16;100.00;98560.06;5119949;28;19967;-60
2022/12/20 09:21:08;;;;;;;;;;;;;;;0.11;100.00;98558.00;5122830;28;19934;-60
2022/12/20 09:23:35;;;;;;;;;;;;;;;0.15;100.00;98566.34;5114477;28;19924;-60
2022/12/20 09:26:03;;;;;;;;;;;;;;;0.14;100.00;98564.69;5119477;28;20201;-60
2022/12/20 09:28:29;;;;;;;;;;;;;;;0.15;100.00;98561.91;5119020;28;19924;-60
2022/12/20 09:30:57;;;;;;;;;;;;;;;0.24;100.00;98552.94;5121807;28;19955;-59
2022/12/20 09:33:24;;;;;;;;;;;;;;;0.29;100.00;98549.75;5122924;28;20000;-60
2022/12/20 09:35:51;;;;;;;;;;;;;;;0.29;100.00;98550.56;5120611;28;19955;-60
2022/12/20 09:38:18;;;;;;;;;;;;;;;0.22;100.00;98548.84;5118971;28;19952;-60
2022/12/20 09:40:45;;;;;;;;;;;;;;;0.24;100.00;98538.97;5119810;28;19987;-59
2022/12/20 09:43:12;;;;;;;;;;;;;;;0.29;100.00;98540.06;5104151;28;20028;-60
2022/12/20 09:45:38;;;;;;;;;;;;;;;0.40;100.00;98547.47;5121868;28;19928;-60
2022/12/20 09:48:06;;;;;;;;;;;;;;;0.36;100.00;98538.34;5118647;28;19924;-59
2022/12/20 09:50:40;;;;;;;;;;;;;;;0.32;100.00;98544.13;5118608;28;19924;-60
2022/12/20 09:53:14;;;;;;;;;;;;;;;0.35;100.00;98560.34;5113362;28;19931;-60
2022/12/20 09:55:43;;;;;;;;;;;;;;;0.35;100.00;98562.97;5118261;28;19996;-60
2022/12/20 09:58:20;;;;;;;;;;;;;;;0.41;100.00;98553.53;5118341;28;20007;-59
2022/12/20 10:00:47;;;;;;;;;;;;;;;0.36;100.00;98542.78;5119405;28;19938;-59
2022/12/20 10:03:19;;;;;;;;;;;;;;;0.38;100.00;98543.41;5121782;28;19994;-61
2022/12/20 10:05:50;;;;;;;;;;;;;;;0.39;100.00;98531.91;5120253;28;20655;-59
2022/12/20 10:08:23;;;;;;;;;;;;;;;0.46;100.00;98522.31;5118038;28;19979;-60
2022/12/20 10:10:53;;;;;;;;;;;;;;;0.49;100.00;98521.94;5119595;28;19955;-59
2022/12/20 10:13:29;;;;;;;;;;;;;;;0.58;100.00;98539.22;5121479;28;19983;-59
2022/12/20 10:16:00;;;;;;;;;;;;;;;0.57;100.00;98527.06;5118451;28;19958;-60
2022/12/20 10:18:42;;;;;;;;;;;;;;;0.60;100.00;98525.88;5117125;28;19991;-60
2022/12/20 10:21:10;;;;;;;;;;;;;;;0.63;100.00;98531.59;5117748;28;19939;-60
2022/12/20 10:23:42;;;;;;;;;;;;;;;0.60;100.00;98531.97;5112412;28;20015;-60
2022/12/20 10:26:09;;;;;;;;;;;;;;;0.61;100.00;98538.84;5109041;28;19944;-60
2022/12/20 10:28:35;;;;;;;;;;;;;;;0.61;100.00;98533.59;5109034;28;19992;-62
2022/12/20 10:31:03;;;;;;;;;;;;;;;0.58;100.00;98509.50;5109218;28;19924;-59
2022/12/20 10:33:30;;;;;;;;;;;;;;;0.56;100.00;98507.03;5109218;28;19967;-59
2022/12/20 10:36:16;;;;;;;;;;;;;;;0.61;100.00;98502.06;5109199;28;19950;-59
2022/12/20 10:38:45;;;;;;;;;;;;;;;0.67;100.00;98500.50;5109140;28;20049;-60
2022/12/20 10:41:15;;;;;;;;;;;;;;;0.69;100.00;98504.56;5109322;28;20035;-60
2022/12/20 10:43:43;;;;;;;;;;;;;;;0.66;100.00;98499.69;5108968;28;19930;-59
2022/12/20 10:46:10;;;;;;;;;;;;;;;0.85;100.00;98504.34;5109064;28;19932;-59
2022/12/20 10:48:38;;;;;;;;;;;;;;;0.84;100.00;98492.19;5109215;28;20019;-60
2022/12/20 10:51:13;;;;;;;;;;;;;;;0.89;100.00;98489.00;5117785;28;19996;-60
2022/12/20 10:53:49;;;;;;;;;;;;;;;0.88;100.00;98474.22;5112413;28;19928;-60
2022/12/20 10:56:19;;;;;;;;;;;;;;;0.84;100.00;98470.31;5117530;28;19932;-58
2022/12/20 10:58:51;;;;;;;;;;;;;;;0.89;100.00;98463.53;5118405;28;19924;-59
2022/12/20 11:01:18;;;;;;;;;;;;;;;0.88;100.00;98458.44;5120715;28;19924;-60
2022/12/20 11:03:52;;;;;;;;;;;;;;;0.88;100.00;98451.38;5119684;28;20070;-59
2022/12/20 11:06:19;;;;;;;;;;;;;;;0.86;100.00;98445.50;5117324;28;19928;-59
2022/12/20 11:08:48;;;;;;;;;;;;;;;0.92;100.00;98447.38;5118454;28;19959;-60
2022/12/20 11:11:16;;;;;;;;;;;;;;;0.95;100.00;98433.84;5120954;28;19923;-60
2022/12/20 11:13:43;;;;;;;;;;;;;;;0.94;100.00;98431.41;5120137;28;19947;-59
2022/12/20 11:16:36;;;;;;;;;;;;;;;0.98;100.00;98428.22;5117481;28;20078;-60
2022/12/20 11:19:11;;;;;;;;;;;;;;;0.92;100.00;98423.72;5083994;28;19955;-59
2022/12/20 11:21:41;;;;;;;;;;;;;;;0.97;100.00;98416.06;5117512;28;19967;-60
2022/12/20 11:24:11;;;;;;;;;;;;;;;0.92;100.00;98407.94;5111605;28;19991;-60
2022/12/20 11:26:52;;;;;;;;;;;;;;;1.04;100.00;98398.53;5117472;28;19951;-60
2022/12/20 11:29:25;;;;;;;;;;;;;;;4.86;100.00;98406.41;5119159;28;20015;-59
2022/12/20 11:31:56;;;;;;;;;;;;;;;5.80;100.00;98403.56;5122832;28;19951;-59
2022/12/20 11:34:30;;;;;;;;;;;;;;;6.32;100.00;98380.13;5121576;28;19991;-60
2022/12/20 11:37:05;;;;;;;;;;;;;;;6.89;100.00;98376.84;5123856;28;19920;-60
2022/12/20 11:39:38;;;;;;;;;;;;;;;7.31;100.00;98380.25;5124915;28;20348;-60
2022/12/20 11:42:10;;;;;;;;;;;;;;;7.71;100.00;98377.69;5121652;28;19935;-60
2022/12/20 11:44:46;;;;;;;;;;;;;;;8.00;100.00;98365.28;5121424;28;19930;-60
2022/12/20 11:47:23;;;;;;;;;;;;;;;8.23;100.00;98354.59;5112844;28;20114;-62
2022/12/20 11:49:59;;;;;;;;;;;;;;;8.54;98.69;98348.78;5112414;28;19924;-60
2022/12/20 11:52:33;;;;;;;;;;;;;;;8.83;96.91;98346.91;5112383;28;19977;-59
2022/12/20 11:55:06;;;;;;;;;;;;;;;9.04;95.25;98350.69;5115713;28;19994;-60
2022/12/20 11:57:37;;;;;;;;;;;;;;;9.09;93.69;98340.94;5124424;28;20035;-60
2022/12/20 12:00:05;;;;;;;;;;;;;;;9.22;92.44;98335.28;5112096;28;19924;-59
2022/12/20 12:02:35;;;;;;;;;;;;;;;9.36;90.79;98330.41;5112261;28;20027;-60
2022/12/20 12:05:03;;;;;;;;;;;;;;;9.43;89.57;98325.72;5111904;28;19924;-60
2022/12/20 12:07:31;;;;;;;;;;;;;;;9.46;88.60;98325.25;5111875;28;20725;-60
2022/12/20 12:10:00;;;;;;;;;;;;;;;9.50;87.48;98326.34;5111885;28;19996;-60
2022/12/20 12:12:28;;;;;;;;;;;;;;;9.49;86.88;98316.75;5111879;28;19955;-60
2022/12/20 12:14:59;;;;;;;;;;;;;;;9.53;86.80;98312.53;5112357;28;19988;-60
2022/12/20 12:17:29;;;;;;;;;;;;;;;9.00;85.22;98312.28;5112081;28;19924;-59
2022/12/20 12:19:57;;;;;;;;;;;;;;;8.31;96.36;98316.16;5112094;28;19956;-60
2022/12/20 12:22:28;;;;;;;;;;;;;;;8.97;92.33;98321.59;5111873;28;19950;-59
2022/12/20 12:24:57;;;;;;;;;;;;;;;9.00;89.83;98323.75;5113895;28;20019;-59
2022/12/20 12:27:25;;;;;;;;;;;;;;;9.16;87.62;98324.78;5123471;28;19991;-60
2022/12/20 12:29:53;;;;;;;;;;;;;;;8.97;87.71;98326.91;5121247;28;19979;-60
2022/12/20 12:32:24;;;;;;;;;;;;;;;9.08;87.28;98320.69;5119747;28;19935;-59
2022/12/20 12:34:59;;;;;;;;;;;;;;;9.27;85.23;98323.91;5121445;28;19969;-59
2022/12/20 12:37:39;;;;;;;;;;;;;;;9.32;84.00;98318.63;5123306;28;19930;-60
2022/12/20 12:40:23;;;;;;;;;;;;;;;9.33;83.49;98311.44;5119708;28;19964;-59
2022/12/20 12:43:09;;;;;;;;;;;;;;;9.43;82.43;98292.94;5121437;28;19955;-59
2022/12/20 12:45:40;;;;;;;;;;;;;;;9.43;81.35;98295.59;5123128;28;19986;-60
2022/12/20 12:48:11;;;;;;;;;;;;;;;9.24;82.23;98295.06;5120123;28;19995;-60
2022/12/20 12:50:39;;;;;;;;;;;;;;;9.47;80.48;98289.50;5119563;28;19923;-59
2022/12/20 12:53:07;;;;;;;;;;;;;;;9.49;80.03;98286.63;5111259;28;19927;-60
2022/12/20 12:55:51;;;;;;;;;;;;;;;9.56;78.24;98282.69;5119208;28;19992;-59
2022/12/20 12:58:40;;;;;;;;;;;;;;;9.54;78.72;98284.81;5111064;28;19924;-60